Detall de PIREP

Printer-friendly versionPDF version

[2011/03/20 17:04:00]
Flight IATA:CT3225
Pilot Number:037
Company ICAO:CAT
Aircraft Type:B763/F
PAX:105
Departing Airport: LJLJ
Destination Airport: LEPA
Alternate Airport:LEBL
Online: VATSIM
Route:ILB UL141 GIRDA UN737 BOL UL865 VALMA UL5 ALG UM603 MORSS

Flight Level:F380
No Slew and time accel
No pause
Crash detect
Detect pilot in Cockpit between each 30 and 45 minutes
17:04 Zero fuel Weight: 276178 Lbs, Fuel Weight: 42295 Lbs
17:04 VATSIM:LJLJ 201630Z 11009KT 070V140 9999 FEW070 09/M08 Q1025 WS ALL RWY NOSIG
17:04 VATSIM:LEPA 201630Z 08015KT 9999 FEW020 15/08 Q1024 NOSIG
17:09 Parking Brakes off
17:17 Take-off
17:17 Take off Weight: 317134 Lbs
17:17 Wind: 093º @ 011 Knots Heading: 123º
17:17 POS N46º 13´ 13´´ E014º 27´ 52´´
17:17 Gear Up: 175 Knots
17:17 Flaps:3 at 175 Knots
17:18 Flaps:2 at 212 Knots
17:18 Flaps:1 at 229 Knots
17:19 Flaps:0 at 269 Knots
17:32 Wind:079º@050 Knots Heading: 197º Ground Speed: 405 Knots Altitude 32168 ft
17:34 TOC
17:34 Fuel Weight: 34055 Lb
17:47 Wind:041º@049 Knots Heading: 226º Ground Speed: 530 Knots Altitude 38293 ft
18:39 TOD
18:39 Fuel Weight: 21770 Lb
18:54 Flaps:1 at 215 Knots
19:02 Wind:079º@018 Knots Heading: 057º Ground Speed: 201 Knots Altitude 3031 ft
19:02 Flaps:2 at 209 Knots
19:02 Gear Down: 204 Knots
19:02 Flaps:3 at 179 Knots
19:03 Flaps:4 at 181 Knots
19:03 Flaps:5 at 179 Knots
19:03 Flaps:4 at 173 Knots
19:03 Flaps:6 at 171 Knots
19:06 TouchDown:Rate -296 ft/min Speed: 122 Knots
19:06 VATSIM:LEPA 201830Z 08011KT 9999 FEW020 12/08 Q1025 NOSIG
19:06 Land
19:06 Wind:082º@011 Knots
19:06 Heading: 058º
19:06 Flight Duration: 01:49
19:06 Landing Weight: 294986 Lbs
19:06 POS N39º 33´ 03´´ E002º 43´ 07´´
19:11 Parking brakes on
19:11 Block to Block Duration:02:02
19:11 Final Fuel: 17764 Lbls
19:11 Spent Fuel: 24530 Lbls
19:11 Flight Length: 333 NM
19:11 TOD Land Length: 12 NM

Exportar CSV

Powered by Drupal - Modified by Danger4k